Time;durP1;ratioP1;P1;durP2;ratioP2;P2;SDS_P1;SDS_P2;PMS_P1;PMS_P2;Temp;Humidity;BMP_temperature;BMP_pressure;BME280_temperature;BME280_humidity;BME280_pressure;Samples;Min_cycle;Max_cycle;Signal;HPM_P1;HPM_P2
2023/07/07 00:00:11;;;;;;;;;;;23.40;92.00;23.60;99509.00;;;;338985;28;95656;-95
2023/07/07 00:00:23;;;;;;;;;;;23.40;92.10;23.60;99509.00;;;;338557;28;82579;-95
2023/07/07 00:00:34;;;;;;;;;;;23.40;92.20;23.60;99504.00;;;;337752;28;95474;-94
2023/07/07 00:00:47;;;;;;;;;;;23.40;92.20;23.70;99514.00;;;;339993;28;82504;-94
2023/07/07 00:01:01;;;;;;;;;;;23.40;92.20;23.60;99504.00;;;;337850;28;95411;-93
2023/07/07 00:01:12;;;;;;;;;;;23.40;92.10;23.60;99507.00;;;;339955;28;82465;-94
2023/07/07 00:01:24;;;;;;;;;;;23.40;92.10;23.50;99505.00;;;;340277;28;97276;-95
2023/07/07 00:01:36;;;;;;;;;;;23.40;92.30;23.50;99505.00;;;;339934;28;82576;-96
2023/07/07 00:01:48;;;;;;;;;;;23.40;92.30;23.50;99508.00;;;;337911;28;95302;-94
2023/07/07 00:02:00;;;;;;;;;;;23.40;92.20;23.50;99505.00;;;;340055;28;82476;-95
2023/07/07 00:02:12;;;;;;;;;;;23.40;92.10;23.40;99515.00;;;;339095;28;95927;-94
2023/07/07 00:02:24;;;;;;;;;;;23.40;92.40;23.30;99505.00;;;;339799;28;82481;-95
2023/07/07 00:02:36;;;;;;;;;;;23.40;92.50;23.30;99512.00;;;;339014;28;94335;-96
2023/07/07 00:02:48;;;;;;;;;;;23.30;92.70;23.30;99512.00;;;;337376;29;82506;-94
2023/07/07 00:03:00;;;;;;;;;;;23.30;92.60;23.30;99509.00;;;;336618;29;95830;-95
2023/07/07 00:03:12;;;;;;;;;;;23.30;92.50;23.30;99506.00;;;;339963;28;82494;-95
2023/07/07 00:03:23;;;;;;;;;;;23.30;92.30;23.40;99509.00;;;;339067;28;97478;-95
2023/07/07 00:03:35;;;;;;;;;;;23.30;92.20;23.40;99510.00;;;;339808;28;82311;-95
2023/07/07 00:03:47;;;;;;;;;;;23.30;92.30;23.40;99506.00;;;;336526;29;95007;-94
2023/07/07 00:03:59;;;;;;;;;;;23.30;92.30;23.40;99510.00;;;;337676;28;82603;-95
2023/07/07 00:04:11;;;;;;;;;;;23.30;92.20;23.40;99514.00;;;;339127;28;95421;-95
2023/07/07 00:04:23;;;;;;;;;;;23.30;92.20;23.30;99505.00;;;;339827;28;82505;-95
2023/07/07 00:04:35;;;;;;;;;;;23.30;92.50;23.30;99513.00;;;;339010;28;95834;-95
2023/07/07 00:04:47;;;;;;;;;;;23.30;92.50;23.30;99512.00;;;;337811;28;83441;-95
2023/07/07 00:04:59;;;;;;;;;;;23.30;92.30;23.30;99511.00;;;;336032;28;95571;-94
2023/07/07 00:05:11;;;;;;;;;;;23.30;92.30;23.30;99508.00;;;;337969;28;83403;-94
2023/07/07 00:05:23;;;;;;;;;;;23.30;92.30;23.30;99516.00;;;;337208;28;97243;-96
2023/07/07 00:05:35;;;;;;;;;;;23.30;92.20;23.40;99510.00;;;;339503;28;82292;-94
2023/07/07 00:05:47;;;;;;;;;;;23.30;92.20;23.30;99511.00;;;;335975;28;95663;-94
2023/07/07 00:06:00;;;;;;;;;;;23.30;92.20;23.30;99509.00;;;;336656;28;83457;-95
2023/07/07 00:06:11;;;;;;;;;;;23.30;92.20;23.30;99503.00;;;;338632;28;95489;-95
2023/07/07 00:06:23;;;;;;;;;;;23.30;92.20;23.40;99510.00;;;;338020;28;83324;-95
2023/07/07 00:06:35;;;;;;;;;;;23.30;92.10;23.40;99508.00;;;;337352;28;97077;-95
2023/07/07 00:06:47;;;;;;;;;;;23.30;92.20;23.40;99509.00;;;;336710;28;82539;-95
2023/07/07 00:06:59;;;;;;;;;;;23.30;92.30;23.50;99509.00;;;;335925;28;95567;-94
2023/07/07 00:07:11;;;;;;;;;;;23.20;92.30;23.50;99508.00;;;;339422;28;83445;-93
2023/07/07 00:07:22;;;;;;;;;;;23.30;92.30;23.50;99511.00;;;;338581;28;96269;-95
2023/07/07 00:07:34;;;;;;;;;;;23.30;92.40;23.50;99509.00;;;;336861;28;83495;-94
2023/07/07 00:07:48;;;;;;;;;;;23.30;92.40;23.40;99510.00;;;;333384;29;95547;-96
2023/07/07 00:08:00;;;;;;;;;;;23.30;92.60;23.40;99508.00;;;;336690;28;84021;-94
2023/07/07 00:08:12;;;;;;;;;;;23.30;92.40;23.50;99505.00;;;;334705;29;95352;-95
2023/07/07 00:08:24;;;;;;;;;;;23.30;92.30;23.60;99509.00;;;;338109;28;83395;-95
2023/07/07 00:08:36;;;;;;;;;;;23.30;92.30;23.60;99507.00;;;;337382;28;96109;-95
2023/07/07 00:08:48;;;;;;;;;;;23.30;92.30;23.70;99513.00;;;;336775;28;82511;-95
2023/07/07 00:09:00;;;;;;;;;;;23.30;92.30;23.60;99508.00;;;;337455;28;96350;-95
2023/07/07 00:09:12;;;;;;;;;;;23.30;92.30;23.60;99512.00;;;;335502;29;82482;-94
2023/07/07 00:09:25;;;;;;;;;;;23.30;92.30;23.50;99503.00;;;;335821;28;97688;-95
2023/07/07 00:09:37;;;;;;;;;;;23.30;92.40;23.50;99506.00;;;;338097;28;83357;-95
2023/07/07 00:09:49;;;;;;;;;;;23.30;92.40;23.40;99504.00;;;;336090;28;93256;-95
2023/07/07 00:10:01;;;;;;;;;;;23.30;92.50;23.30;99511.00;;;;336651;28;82495;-95
2023/07/07 00:10:13;;;;;;;;;;;23.30;92.60;23.40;99509.00;;;;334608;28;96476;-95
2023/07/07 00:10:24;;;;;;;;;;;23.30;92.50;23.40;99517.00;;;;336620;28;83529;-94
2023/07/07 00:10:42;;;;;;;;;;;23.30;92.50;23.40;99508.00;;;;337503;28;95967;-95
2023/07/07 00:10:58;;;;;;;;;;;23.30;92.50;23.40;99510.00;;;;336871;28;83273;-96
2023/07/07 00:11:10;;;;;;;;;;;23.30;92.50;23.50;99511.00;;;;337327;28;96482;-95
2023/07/07 00:11:22;;;;;;;;;;;23.30;92.40;23.50;99504.00;;;;337985;28;82464;-95
2023/07/07 00:11:34;;;;;;;;;;;23.30;92.30;23.50;99506.00;;;;336009;28;95785;-94
2023/07/07 00:11:46;;;;;;;;;;;23.30;92.30;23.60;99506.00;;;;339352;28;83525;-95
2023/07/07 00:12:00;;;;;;;;;;;23.30;92.40;23.50;99504.00;;;;336050;28;96384;-94
2023/07/07 00:12:13;;;;;;;;;;;23.30;92.30;23.50;99505.00;;;;337095;28;82698;-95
2023/07/07 00:12:25;;;;;;;;;;;23.30;92.40;23.40;99504.00;;;;334518;29;95890;-95
2023/07/07 00:12:37;;;;;;;;;;;23.30;92.50;23.40;99510.00;;;;336973;28;82596;-95
2023/07/07 00:12:51;;;;;;;;;;;23.30;92.60;23.40;99509.00;;;;335902;28;95757;-95
2023/07/07 00:13:02;;;;;;;;;;;23.30;92.40;23.40;99506.00;;;;336886;28;83383;-95
2023/07/07 00:13:15;;;;;;;;;;;23.30;92.50;23.40;99504.00;;;;335924;28;95596;-95
2023/07/07 00:13:26;;;;;;;;;;;23.30;92.40;23.40;99510.00;;;;334176;29;82556;-94
2023/07/07 00:13:38;;;;;;;;;;;23.30;92.50;23.40;99506.00;;;;334589;29;97157;-94
2023/07/07 00:13:52;;;;;;;;;;;23.30;92.60;23.40;99503.00;;;;335505;29;82567;-95
2023/07/07 00:14:04;;;;;;;;;;;23.30;92.50;23.40;99511.00;;;;337285;28;96733;-94
2023/07/07 00:14:16;;;;;;;;;;;23.30;92.40;23.40;99509.00;;;;336775;28;82400;-95
2023/07/07 00:14:28;;;;;;;;;;;23.30;92.40;23.40;99504.00;;;;336120;28;96555;-94
2023/07/07 00:14:40;;;;;;;;;;;23.30;92.50;23.40;99506.00;;;;336740;28;82513;-95
2023/07/07 00:14:52;;;;;;;;;;;23.30;92.50;23.50;99507.00;;;;335980;28;95316;-94
2023/07/07 00:15:04;;;;;;;;;;;23.30;92.50;23.50;99507.00;;;;337977;28;83456;-95
2023/07/07 00:15:16;;;;;;;;;;;23.30;92.60;23.60;99514.00;;;;337122;28;95818;-95
2023/07/07 00:15:28;;;;;;;;;;;23.30;92.60;23.50;99509.00;;;;336788;28;82514;-95
2023/07/07 00:15:44;;;;;;;;;;;23.30;92.60;23.50;99502.00;;;;335904;28;97514;-94
2023/07/07 00:16:02;;;;;;;;;;;23.30;92.60;23.30;99509.00;;;;336612;28;83540;-95
2023/07/07 00:16:15;;;;;;;;;;;23.30;92.70;23.30;99505.00;;;;337358;28;95954;-95
2023/07/07 00:16:27;;;;;;;;;;;23.30;93.10;23.30;99513.00;;;;335511;29;83401;-95
2023/07/07 00:16:40;;;;;;;;;;;23.20;92.80;23.30;99514.00;;;;335813;28;96746;-94
2023/07/07 00:16:52;;;;;;;;;;;23.20;92.70;23.40;99507.00;;;;335361;29;83304;-94
2023/07/07 00:17:04;;;;;;;;;;;23.20;92.70;23.30;99506.00;;;;334639;29;96955;-95
2023/07/07 00:17:16;;;;;;;;;;;23.20;92.70;23.40;99514.00;;;;336707;28;83482;-96
2023/07/07 00:17:28;;;;;;;;;;;23.30;92.70;23.40;99510.00;;;;337082;28;95484;-94
2023/07/07 00:17:41;;;;;;;;;;;23.20;92.70;23.40;99511.00;;;;336678;28;82537;-94
2023/07/07 00:17:53;;;;;;;;;;;23.20;92.70;23.40;99511.00;;;;334532;29;97878;-95
2023/07/07 00:18:05;;;;;;;;;;;23.20;92.80;23.30;99517.00;;;;335378;29;83365;-95
2023/07/07 00:18:26;;;;;;;;;;;23.30;93.00;23.30;99522.00;;;;335711;28;95902;-95
2023/07/07 00:18:39;;;;;;;;;;;23.20;93.00;23.30;99514.00;;;;334040;29;82526;-94
2023/07/07 00:18:51;;;;;;;;;;;23.20;93.00;23.30;99505.00;;;;333454;29;96571;-94
2023/07/07 00:19:03;;;;;;;;;;;23.20;93.40;23.40;99513.00;;;;335348;28;83491;-95
2023/07/07 00:19:15;;;;;;;;;;;23.20;93.10;23.30;99515.00;;;;332144;29;95263;-95
2023/07/07 00:19:32;;;;;;;;;;;23.20;93.10;23.30;99513.00;;;;335448;29;82534;-94
2023/07/07 00:19:45;;;;;;;;;;;23.20;92.90;23.30;99518.00;;;;333281;29;96805;-95
2023/07/07 00:19:57;;;;;;;;;;;23.20;93.00;23.30;99518.00;;;;334039;29;83510;-95
2023/07/07 00:20:10;;;;;;;;;;;23.20;93.30;23.30;99513.00;;;;334506;29;97385;-94
2023/07/07 00:20:23;;;;;;;;;;;23.20;93.10;23.30;99507.00;;;;335419;29;83375;-95
2023/07/07 00:20:35;;;;;;;;;;;23.20;93.10;23.30;99514.00;;;;334733;29;97316;-94
2023/07/07 00:20:47;;;;;;;;;;;23.10;93.00;23.30;99516.00;;;;336748;28;83374;-95
2023/07/07 00:20:59;;;;;;;;;;;23.20;93.00;23.30;99515.00;;;;335700;28;95812;-94
2023/07/07 00:21:12;;;;;;;;;;;23.10;93.10;23.20;99508.00;;;;335435;29;82597;-94
2023/07/07 00:21:24;;;;;;;;;;;23.10;93.20;23.30;99520.00;;;;335957;28;95667;-95
2023/07/07 00:21:37;;;;;;;;;;;23.10;93.10;23.30;99513.00;;;;334265;29;83394;-95
2023/07/07 00:21:58;;;;;;;;;;;23.10;93.10;23.20;99519.00;;;;334700;29;96532;-95
2023/07/07 00:22:10;;;;;;;;;;;23.10;93.20;23.30;99520.00;;;;336690;28;83527;-94
2023/07/07 00:22:21;;;;;;;;;;;23.10;93.10;23.30;99516.00;;;;335884;28;96671;-96
2023/07/07 00:22:34;;;;;;;;;;;23.10;93.20;23.30;99520.00;;;;336766;28;82392;-95
2023/07/07 00:22:47;;;;;;;;;;;23.10;93.10;23.20;99512.00;;;;333289;29;95828;-94
2023/07/07 00:22:59;;;;;;;;;;;23.10;93.40;23.20;99518.00;;;;334288;29;82410;-95
2023/07/07 00:23:12;;;;;;;;;;;23.10;93.60;23.20;99514.00;;;;337359;28;94795;-95
2023/07/07 00:23:24;;;;;;;;;;;23.10;93.50;23.20;99511.00;;;;335379;29;83391;-95
2023/07/07 00:23:37;;;;;;;;;;;23.10;93.90;23.20;99515.00;;;;334772;29;94911;-95
2023/07/07 00:23:54;;;;;;;;;;;23.10;93.70;23.20;99514.00;;;;335393;29;84005;-95
2023/07/07 00:24:07;;;;;;;;;;;23.10;93.60;23.10;99519.00;;;;335963;28;95834;-95
2023/07/07 00:24:18;;;;;;;;;;;23.10;94.70;23.00;99518.00;;;;338092;28;82581;-95
2023/07/07 00:24:31;;;;;;;;;;;23.00;95.10;23.10;99522.00;;;;334620;29;97707;-95
2023/07/07 00:24:43;;;;;;;;;;;23.00;94.80;23.00;99523.00;;;;334062;29;83459;-95
2023/07/07 00:24:55;;;;;;;;;;;23.00;95.10;23.00;99523.00;;;;334529;29;97221;-95
2023/07/07 00:25:07;;;;;;;;;;;23.00;95.00;23.10;99518.00;;;;336814;28;82463;-95
2023/07/07 00:25:19;;;;;;;;;;;23.00;94.70;23.10;99517.00;;;;334666;29;96605;-95
2023/07/07 00:25:31;;;;;;;;;;;23.00;94.80;22.90;99520.00;;;;336698;28;82515;-95
2023/07/07 00:25:43;;;;;;;;;;;23.10;95.30;23.00;99520.00;;;;337175;28;96671;-95
2023/07/07 00:26:03;;;;;;;;;;;23.00;95.40;22.90;99524.00;;;;336800;28;82433;-95
2023/07/07 00:26:15;;;;;;;;;;;23.00;95.80;22.80;99515.00;;;;335920;28;96675;-94
2023/07/07 00:26:27;;;;;;;;;;;23.00;96.00;22.70;99512.00;;;;335456;29;83424;-95
2023/07/07 00:26:39;;;;;;;;;;;23.00;96.30;23.00;99520.00;;;;333446;29;96625;-96
2023/07/07 00:26:51;;;;;;;;;;;23.00;96.00;23.10;99514.00;;;;336592;28;82531;-95
2023/07/07 00:27:03;;;;;;;;;;;23.10;95.90;23.20;99519.00;;;;334566;29;94606;-95
2023/07/07 00:27:15;;;;;;;;;;;23.00;95.90;23.20;99517.00;;;;335246;28;83436;-95
2023/07/07 00:27:27;;;;;;;;;;;23.00;95.70;23.20;99518.00;;;;334505;28;95570;-95
2023/07/07 00:27:39;;;;;;;;;;;23.00;95.80;23.00;99517.00;;;;336711;28;83431;-95
2023/07/07 00:27:51;;;;;;;;;;;23.00;96.00;23.00;99516.00;;;;335865;28;95349;-95
2023/07/07 00:28:03;;;;;;;;;;;23.00;96.30;22.90;99514.00;;;;335394;29;83404;-95
2023/07/07 00:28:14;;;;;;;;;;;23.00;96.40;22.90;99516.00;;;;334113;29;94898;-94
2023/07/07 00:28:27;;;;;;;;;;;23.00;96.50;22.80;99526.00;;;;336815;28;82553;-94
2023/07/07 00:28:39;;;;;;;;;;;23.00;96.70;23.00;99523.00;;;;333274;29;97705;-96
2023/07/07 00:28:50;;;;;;;;;;;23.00;96.50;23.00;99519.00;;;;335353;29;83437;-95
2023/07/07 00:29:02;;;;;;;;;;;23.00;96.20;23.00;99518.00;;;;337122;28;96489;-95
2023/07/07 00:29:14;;;;;;;;;;;23.00;96.30;23.00;99518.00;;;;335340;29;83510;-96
2023/07/07 00:29:26;;;;;;;;;;;23.00;96.70;23.00;99513.00;;;;337139;28;96931;-94
2023/07/07 00:29:38;;;;;;;;;;;23.00;96.40;22.90;99517.00;;;;336744;28;82526;-95
2023/07/07 00:29:50;;;;;;;;;;;23.00;96.80;22.80;99517.00;;;;334637;29;96961;-95
2023/07/07 00:30:03;;;;;;;;;;;23.00;96.80;22.70;99517.00;;;;336675;28;82500;-95
2023/07/07 00:30:14;;;;;;;;;;;22.90;96.70;22.70;99517.00;;;;334611;29;97166;-95
2023/07/07 00:30:26;;;;;;;;;;;23.00;96.70;22.70;99518.00;;;;335438;29;83361;-95
2023/07/07 00:30:38;;;;;;;;;;;22.90;96.60;22.90;99522.00;;;;334469;29;96641;-95
2023/07/07 00:30:50;;;;;;;;;;;22.90;96.50;23.10;99520.00;;;;336592;28;83451;-95
2023/07/07 00:31:02;;;;;;;;;;;22.90;96.50;23.10;99516.00;;;;334617;29;95919;-95
2023/07/07 00:31:15;;;;;;;;;;;22.90;96.40;23.20;99518.00;;;;335453;29;83416;-95
2023/07/07 00:31:27;;;;;;;;;;;23.00;96.40;23.20;99509.00;;;;335998;28;95939;-95
2023/07/07 00:31:40;;;;;;;;;;;23.00;96.30;23.00;99519.00;;;;335478;29;82562;-95
2023/07/07 00:31:52;;;;;;;;;;;23.00;96.30;22.90;99523.00;;;;334684;29;94006;-95
2023/07/07 00:32:04;;;;;;;;;;;22.90;96.40;22.80;99524.00;;;;335445;29;83262;-94
2023/07/07 00:32:16;;;;;;;;;;;23.00;96.60;22.80;99519.00;;;;336029;28;95466;-95
2023/07/07 00:32:29;;;;;;;;;;;22.90;96.60;22.80;99523.00;;;;336920;28;83464;-95
2023/07/07 00:32:41;;;;;;;;;;;23.00;96.80;22.80;99516.00;;;;337086;28;97704;-95
2023/07/07 00:32:53;;;;;;;;;;;23.00;96.90;22.80;99520.00;;;;335561;29;83372;-95
2023/07/07 00:33:05;;;;;;;;;;;22.90;96.90;22.80;99523.00;;;;334446;29;95559;-94
2023/07/07 00:33:17;;;;;;;;;;;23.00;97.00;22.80;99511.00;;;;332944;29;83375;-95
2023/07/07 00:33:28;;;;;;;;;;;22.90;97.00;22.80;99514.00;;;;333084;29;95883;-95
2023/07/07 00:33:40;;;;;;;;;;;22.90;96.90;22.80;99521.00;;;;334261;29;82512;-95
2023/07/07 00:33:52;;;;;;;;;;;22.90;96.90;22.80;99523.00;;;;334776;29;95886;-94
2023/07/07 00:34:04;;;;;;;;;;;22.90;97.00;22.80;99523.00;;;;336457;28;83526;-95
2023/07/07 00:34:16;;;;;;;;;;;22.90;96.90;22.80;99522.00;;;;335992;28;96608;-95
2023/07/07 00:34:28;;;;;;;;;;;22.90;97.00;22.70;99522.00;;;;337834;28;83406;-94
2023/07/07 00:34:39;;;;;;;;;;;22.90;97.00;22.70;99520.00;;;;335925;28;97730;-94
2023/07/07 00:34:51;;;;;;;;;;;22.90;97.10;22.70;99515.00;;;;334099;29;83443;-96
2023/07/07 00:35:04;;;;;;;;;;;22.80;97.20;22.80;99522.00;;;;334669;29;96405;-95
2023/07/07 00:35:16;;;;;;;;;;;22.80;96.90;22.80;99523.00;;;;333056;29;83379;-95
2023/07/07 00:35:27;;;;;;;;;;;22.80;96.80;22.90;99519.00;;;;335691;28;94717;-95
2023/07/07 00:35:46;;;;;;;;;;;22.80;96.50;23.00;99531.00;;;;336856;28;82499;-95
2023/07/07 00:35:58;;;;;;;;;;;22.80;96.40;23.00;99525.00;;;;336095;28;95178;-95
2023/07/07 00:36:09;;;;;;;;;;;22.80;96.50;23.00;99527.00;;;;335428;29;83584;-94
2023/07/07 00:36:22;;;;;;;;;;;22.80;96.60;22.90;99526.00;;;;334721;29;95553;-95
2023/07/07 00:36:34;;;;;;;;;;;22.80;96.80;22.80;99525.00;;;;334195;29;82526;-95
2023/07/07 00:36:46;;;;;;;;;;;22.90;97.00;22.80;99526.00;;;;335865;28;98068;-94
2023/07/07 00:36:57;;;;;;;;;;;22.80;97.20;22.70;99526.00;;;;338048;28;83605;-94
2023/07/07 00:37:09;;;;;;;;;;;22.80;97.30;22.70;99529.00;;;;338656;28;96016;-95
2023/07/07 00:37:21;;;;;;;;;;;22.80;97.30;22.70;99522.00;;;;336822;28;82552;-95
2023/07/07 00:37:34;;;;;;;;;;;22.80;97.40;22.70;99527.00;;;;337334;28;96647;-95
2023/07/07 00:37:46;;;;;;;;;;;22.80;97.50;22.70;99526.00;;;;336908;28;83421;-95
2023/07/07 00:37:58;;;;;;;;;;;22.80;97.40;22.70;99529.00;;;;334538;29;96811;-95
2023/07/07 00:38:09;;;;;;;;;;;22.80;97.50;22.70;99519.00;;;;336760;28;83575;-94
2023/07/07 00:38:22;;;;;;;;;;;22.80;97.60;22.70;99529.00;;;;336037;28;96565;-95
2023/07/07 00:38:34;;;;;;;;;;;22.80;97.60;22.70;99526.00;;;;338181;28;82390;-95
2023/07/07 00:38:46;;;;;;;;;;;22.80;97.30;22.70;99524.00;;;;333380;29;96250;-95
2023/07/07 00:38:58;;;;;;;;;;;22.80;97.10;22.80;99526.00;;;;333950;29;82525;-95
2023/07/07 00:39:10;;;;;;;;;;;22.80;97.30;22.80;99531.00;;;;334315;29;94674;-95
2023/07/07 00:39:22;;;;;;;;;;;22.80;97.00;22.80;99523.00;;;;336620;28;82482;-95
2023/07/07 00:39:33;;;;;;;;;;;22.80;96.80;22.80;99525.00;;;;334432;29;96573;-94
2023/07/07 00:39:45;;;;;;;;;;;22.80;96.80;22.80;99522.00;;;;336741;28;82349;-95
2023/07/07 00:39:57;;;;;;;;;;;22.80;97.10;22.80;99524.00;;;;335977;28;96410;-94
2023/07/07 00:40:09;;;;;;;;;;;22.80;96.80;22.80;99532.00;;;;335460;29;83430;-95
2023/07/07 00:40:21;;;;;;;;;;;22.80;96.90;22.80;99533.00;;;;334663;29;96172;-95
2023/07/07 00:40:33;;;;;;;;;;;22.80;97.60;22.70;99532.00;;;;335546;29;83394;-95
2023/07/07 00:40:45;;;;;;;;;;;22.70;97.50;22.70;99525.00;;;;334564;29;95818;-95
2023/07/07 00:41:01;;;;;;;;;;;22.70;97.50;22.70;99532.00;;;;335493;29;82602;-95
2023/07/07 00:41:13;;;;;;;;;;;22.70;97.50;22.80;99533.00;;;;333533;29;95220;-95
2023/07/07 00:41:25;;;;;;;;;;;22.70;97.30;22.80;99531.00;;;;331534;29;82498;-95
2023/07/07 00:41:37;;;;;;;;;;;22.80;97.30;22.80;99531.00;;;;333376;29;94989;-95
2023/07/07 00:41:48;;;;;;;;;;;22.70;97.10;22.80;99533.00;;;;335512;29;82663;-96
2023/07/07 00:42:00;;;;;;;;;;;22.70;96.90;22.90;99530.00;;;;333444;29;96058;-95
2023/07/07 00:42:12;;;;;;;;;;;22.80;96.90;22.90;99529.00;;;;334267;29;82533;-95
2023/07/07 00:42:24;;;;;;;;;;;22.70;97.20;22.80;99535.00;;;;335834;28;96457;-95
2023/07/07 00:42:36;;;;;;;;;;;22.70;97.40;22.80;99530.00;;;;338653;28;82326;-95
2023/07/07 00:42:48;;;;;;;;;;;22.80;98.00;22.80;99532.00;;;;333756;29;97771;-95
2023/07/07 00:43:00;;;;;;;;;;;22.80;97.70;22.80;99532.00;;;;337300;28;82575;-94
2023/07/07 00:43:16;;;;;;;;;;;22.70;97.80;22.80;99534.00;;;;333885;29;96629;-95
2023/07/07 00:43:28;;;;;;;;;;;22.70;97.80;22.80;99540.00;;;;334568;29;82577;-94
2023/07/07 00:43:40;;;;;;;;;;;22.70;97.90;22.70;99536.00;;;;333876;29;95595;-95
2023/07/07 00:44:05;;;;;;;;;;;22.70;97.90;22.70;99547.00;;;;334649;29;82599;-95
2023/07/07 00:44:17;;;;;;;;;;;22.70;98.00;22.80;99541.00;;;;337583;28;95625;-95
2023/07/07 00:44:50;;;;;;;;;;;22.70;97.40;22.80;99545.00;;;;338520;28;82487;-94
2023/07/07 00:45:06;;;;;;;;;;;22.70;97.20;22.90;99542.00;;;;336469;28;95910;-95
2023/07/07 00:45:19;;;;;;;;;;;22.70;97.30;22.90;99539.00;;;;333336;29;83465;-96
2023/07/07 00:45:31;;;;;;;;;;;22.70;97.60;22.90;99540.00;;;;334970;29;97580;-94
2023/07/07 00:45:44;;;;;;;;;;;22.70;97.70;22.90;99547.00;;;;335861;28;82589;-95
2023/07/07 00:45:56;;;;;;;;;;;22.70;97.80;22.80;99537.00;;;;336496;28;95827;-94
2023/07/07 00:46:08;;;;;;;;;;;22.70;97.90;22.70;99539.00;;;;338431;28;83403;-95
2023/07/07 00:46:20;;;;;;;;;;;22.70;98.10;22.80;99542.00;;;;336509;28;95814;-95
2023/07/07 00:46:32;;;;;;;;;;;22.70;98.10;22.80;99547.00;;;;334671;29;82562;-95
2023/07/07 00:46:44;;;;;;;;;;;22.70;98.10;22.70;99543.00;;;;336091;28;96835;-95
2023/07/07 00:46:56;;;;;;;;;;;22.70;98.30;22.70;99546.00;;;;335290;29;83492;-94
2023/07/07 00:47:08;;;;;;;;;;;22.70;98.50;22.70;99546.00;;;;334587;29;96569;-95
2023/07/07 00:47:19;;;;;;;;;;;22.70;98.30;22.80;99543.00;;;;336636;28;82581;-94
2023/07/07 00:47:37;;;;;;;;;;;22.60;97.90;22.70;99545.00;;;;332043;29;97132;-94
2023/07/07 00:48:11;;;;;;;;;;;22.70;98.00;22.60;99547.00;;;;335398;29;82542;-94
2023/07/07 00:48:25;;;;;;;;;;;22.70;98.20;22.40;99544.00;;;;334588;29;96482;-94
2023/07/07 00:48:40;;;;;;;;;;;22.60;99.10;22.50;99552.00;;;;336491;28;83572;-94
2023/07/07 00:48:52;;;;;;;;;;;22.60;99.00;22.60;99545.00;;;;335925;28;96403;-95
2023/07/07 00:49:07;;;;;;;;;;;22.60;99.10;22.70;99543.00;;;;334002;29;83577;-95
2023/07/07 00:49:19;;;;;;;;;;;22.60;98.80;22.50;99548.00;;;;334822;29;92993;-94
2023/07/07 00:49:33;;;;;;;;;;;22.60;98.80;22.40;99541.00;;;;336675;28;83370;-95
2023/07/07 00:49:46;;;;;;;;;;;22.60;99.20;22.30;99549.00;;;;335876;28;95922;-94
2023/07/07 00:49:59;;;;;;;;;;;22.60;99.20;22.30;99549.00;;;;335455;29;82565;-95
2023/07/07 00:50:10;;;;;;;;;;;22.60;99.20;22.50;99549.00;;;;335759;28;97899;-96
2023/07/07 00:50:25;;;;;;;;;;;22.60;99.20;22.60;99544.00;;;;336788;28;82456;-95
2023/07/07 00:50:58;;;;;;;;;;;22.60;99.40;22.40;99550.00;;;;332064;29;96848;-95
2023/07/07 00:51:14;;;;;;;;;;;22.60;99.40;22.50;99555.00;;;;333908;29;83479;-95
2023/07/07 00:51:43;;;;;;;;;;;22.60;99.10;22.40;99542.00;;;;335657;28;95877;-94
2023/07/07 00:51:59;;;;;;;;;;;22.60;99.40;22.40;99542.00;;;;336585;28;82585;-95
2023/07/07 00:52:11;;;;;;;;;;;22.60;99.60;22.40;99546.00;;;;334565;28;97065;-94
2023/07/07 00:52:23;;;;;;;;;;;22.60;99.90;22.40;99547.00;;;;338060;28;83443;-95
2023/07/07 00:52:35;;;;;;;;;;;22.60;99.80;22.30;99547.00;;;;334674;29;96584;-94
2023/07/07 00:52:47;;;;;;;;;;;22.60;99.70;22.30;99544.00;;;;333988;29;82547;-96
2023/07/07 00:52:59;;;;;;;;;;;22.60;99.70;22.40;99544.00;;;;334607;29;96147;-95
2023/07/07 00:53:12;;;;;;;;;;;22.60;99.80;22.40;99539.00;;;;335406;29;82557;-95
2023/07/07 00:53:24;;;;;;;;;;;22.50;99.70;22.30;99545.00;;;;336020;28;95609;-95
2023/07/07 00:53:37;;;;;;;;;;;22.50;99.60;22.30;99545.00;;;;336626;28;83478;-95
2023/07/07 00:53:50;;;;;;;;;;;22.50;99.70;22.30;99536.00;;;;337307;28;95943;-95
2023/07/07 00:54:04;;;;;;;;;;;22.50;99.90;22.30;99539.00;;;;335389;29;82347;-95
2023/07/07 00:54:21;;;;;;;;;;;22.50;99.90;22.40;99544.00;;;;334773;29;95586;-95
2023/07/07 00:54:34;;;;;;;;;;;22.50;99.90;22.50;99538.00;;;;335383;29;83473;-94
2023/07/07 00:54:46;;;;;;;;;;;22.50;99.50;22.40;99530.00;;;;335822;28;96828;-95
2023/07/07 00:54:57;;;;;;;;;;;22.50;99.60;22.40;99541.00;;;;336785;28;83421;-95
2023/07/07 00:55:12;;;;;;;;;;;22.50;99.80;22.30;99531.00;;;;335811;28;95896;-94
2023/07/07 00:55:52;;;;;;;;;;;22.50;99.80;22.30;99540.00;;;;336669;28;82476;-95
2023/07/07 00:56:10;;;;;;;;;;;22.50;99.90;22.30;99534.00;;;;335335;28;97133;-94
2023/07/07 00:56:35;;;;;;;;;;;22.50;99.90;22.30;99534.00;;;;336753;28;82508;-95
2023/07/07 00:56:48;;;;;;;;;;;22.40;99.90;22.40;99535.00;;;;337194;28;96605;-95
2023/07/07 00:57:00;;;;;;;;;;;22.40;99.60;22.40;99531.00;;;;336713;28;83407;-95
2023/07/07 00:57:11;;;;;;;;;;;22.50;99.90;22.40;99536.00;;;;334587;29;96664;-95
2023/07/07 00:57:23;;;;;;;;;;;22.40;99.80;22.40;99537.00;;;;335314;29;82522;-95
2023/07/07 00:57:35;;;;;;;;;;;22.40;99.60;22.40;99528.00;;;;337216;28;96490;-95
2023/07/07 00:57:47;;;;;;;;;;;22.40;99.90;22.30;99531.00;;;;336664;28;83561;-95
2023/07/07 00:58:01;;;;;;;;;;;22.40;99.90;22.40;99535.00;;;;335934;28;97976;-95
2023/07/07 00:58:14;;;;;;;;;;;22.40;99.90;22.30;99529.00;;;;335360;29;82694;-95
2023/07/07 00:58:26;;;;;;;;;;;22.40;99.90;22.40;99526.00;;;;334593;29;95814;-95
2023/07/07 00:58:37;;;;;;;;;;;22.40;99.90;22.60;99534.00;;;;336755;28;83374;-95
2023/07/07 00:58:49;;;;;;;;;;;22.40;99.60;22.60;99529.00;;;;335814;28;96926;-94
2023/07/07 00:59:04;;;;;;;;;;;22.40;99.90;22.40;99532.00;;;;338030;28;83372;-94
2023/07/07 00:59:20;;;;;;;;;;;22.40;99.90;22.30;99528.00;;;;335962;28;96763;-94
2023/07/07 00:59:34;;;;;;;;;;;22.40;99.90;22.40;99530.00;;;;336711;28;82501;-95
2023/07/07 00:59:46;;;;;;;;;;;22.40;99.90;22.40;99526.00;;;;337241;28;96514;-95
2023/07/07 00:59:58;;;;;;;;;;;22.40;99.90;22.50;99527.00;;;;335549;29;82389;-95
2023/07/07 01:00:11;;;;;;;;;;;22.40;99.90;22.50;99523.00;;;;334485;29;96299;-95
2023/07/07 01:00:23;;;;;;;;;;;22.40;99.90;22.30;99522.00;;;;336729;28;82468;-94
2023/07/07 01:00:35;;;;;;;;;;;22.40;99.90;22.20;99533.00;;;;334802;29;96371;-95
2023/07/07 01:00:51;;;;;;;;;;;22.40;99.90;22.20;99525.00;;;;335277;28;82737;-95
2023/07/07 01:01:12;;;;;;;;;;;22.40;99.90;22.20;99529.00;;;;335911;28;96491;-95
2023/07/07 01:01:24;;;;;;;;;;;22.40;99.90;22.20;99523.00;;;;335408;29;82311;-95
2023/07/07 01:01:36;;;;;;;;;;;22.40;99.90;22.20;99533.00;;;;335976;28;96807;-95
2023/07/07 01:01:51;;;;;;;;;;;22.40;99.90;22.10;99525.00;;;;335401;29;83490;-94
2023/07/07 01:02:06;;;;;;;;;;;22.40;99.90;22.20;99530.00;;;;334457;29;95692;-95
2023/07/07 01:02:25;;;;;;;;;;;22.40;99.90;22.30;99527.00;;;;336629;28;83510;-94
2023/07/07 01:02:40;;;;;;;;;;;22.40;99.90;22.40;99528.00;;;;335942;28;96246;-95
2023/07/07 01:02:54;;;;;;;;;;;22.40;99.90;22.30;99514.00;;;;337989;28;82505;-95
2023/07/07 01:03:12;;;;;;;;;;;22.40;99.90;22.30;99530.00;;;;335959;28;93033;-95
2023/07/07 01:03:28;;;;;;;;;;;22.40;99.90;22.30;99524.00;;;;336726;28;83521;-96
2023/07/07 01:03:46;;;;;;;;;;;22.40;99.90;22.30;99530.00;;;;337256;28;95667;-95
2023/07/07 01:03:59;;;;;;;;;;;22.40;99.90;22.30;99532.00;;;;335439;28;82588;-95
2023/07/07 01:04:14;;;;;;;;;;;22.40;99.90;22.30;99529.00;;;;334558;29;97110;-96
2023/07/07 01:04:27;;;;;;;;;;;22.30;99.90;22.30;99525.00;;;;338072;28;83425;-95
2023/07/07 01:04:41;;;;;;;;;;;22.30;99.90;22.30;99526.00;;;;335966;28;95859;-95
2023/07/07 01:04:55;;;;;;;;;;;22.30;99.90;22.30;99532.00;;;;336685;28;82365;-95
2023/07/07 01:05:07;;;;;;;;;;;22.30;99.90;22.20;99533.00;;;;333317;29;96876;-95